createdAt,value
2024-04-01T00:00:00.503Z,58.14
2024-04-01T00:01:01.426Z,56.97
2024-04-01T00:02:00.578Z,56.82
2024-04-01T00:03:00.944Z,57.85
2024-04-01T00:04:00.651Z,57.50
2024-04-01T00:05:00.691Z,57.68
2024-04-01T00:06:01.450Z,58.05
2024-04-01T00:07:00.758Z,57.48
2024-04-01T00:08:00.810Z,57.52
2024-04-01T00:09:00.854Z,57.74
2024-04-01T00:10:00.895Z,57.60
2024-04-01T00:11:00.928Z,58.50
2024-04-01T00:12:00.957Z,57.76
2024-04-01T00:13:01.453Z,57.05
2024-04-01T00:14:01.004Z,57.97
2024-04-01T00:15:01.056Z,58.63
2024-04-01T00:16:01.104Z,56.37
2024-04-01T00:17:01.130Z,56.87
2024-04-01T00:18:01.168Z,58.27
2024-04-01T00:19:01.254Z,57.53
2024-04-01T00:20:01.229Z,57.31
2024-04-01T00:21:01.304Z,57.69
2024-04-01T00:22:04.704Z,56.64
2024-04-01T00:23:01.481Z,58.80
2024-04-01T00:24:01.287Z,58.46
2024-04-01T00:25:01.275Z,57.06
2024-04-01T00:26:01.225Z,57.22
2024-04-01T00:27:01.232Z,57.87
2024-04-01T00:28:01.210Z,57.53
2024-04-01T00:29:01.178Z,57.50
2024-04-01T00:30:01.177Z,56.64
2024-04-01T00:31:01.152Z,57.58
2024-04-01T00:32:01.179Z,56.40
2024-04-01T00:33:01.476Z,57.31
2024-04-01T00:34:01.128Z,56.20
2024-04-01T00:35:02.839Z,57.62
2024-04-01T00:36:01.083Z,59.10
2024-04-01T00:37:01.054Z,56.43
2024-04-01T00:38:01.062Z,57.39
2024-04-01T00:39:01.965Z,59.05
2024-04-01T00:40:01.027Z,58.26
2024-04-01T00:41:00.986Z,57.69
2024-04-01T00:42:00.990Z,57.13
2024-04-01T00:43:00.974Z,58.54
2024-04-01T00:44:00.984Z,57.80
2024-04-01T00:45:01.011Z,57.83
2024-04-01T00:46:01.053Z,56.57
2024-04-01T00:47:01.108Z,58.33
2024-04-01T00:48:01.159Z,57.93
2024-04-01T00:49:01.172Z,56.26
2024-04-01T00:50:01.261Z,58.37
2024-04-01T00:51:01.330Z,59.76
2024-04-01T00:52:01.323Z,58.22
2024-04-01T00:53:01.567Z,57.18
2024-04-01T00:54:01.388Z,57.85
2024-04-01T00:55:01.430Z,56.66
2024-04-01T00:56:01.471Z,58.23
2024-04-01T00:57:01.513Z,58.53
2024-04-01T00:58:01.571Z,58.72
2024-04-01T00:59:01.615Z,58.45
2024-04-01T01:00:01.659Z,59.15
2024-04-01T01:01:01.687Z,58.43
2024-04-01T01:02:01.748Z,58.99
2024-04-01T01:03:01.951Z,57.47
2024-04-01T01:04:01.808Z,57.63
2024-04-01T01:05:01.877Z,56.85
2024-04-01T01:06:01.923Z,58.42
2024-04-01T01:07:02.797Z,58.31
2024-04-01T01:08:02.499Z,58.21
2024-04-01T01:09:02.032Z,56.83
2024-04-01T01:10:02.073Z,57.16
2024-04-01T01:11:02.120Z,57.77
2024-04-01T01:12:02.169Z,58.20
2024-04-01T01:13:02.482Z,57.81
2024-04-01T01:14:02.233Z,58.95
2024-04-01T01:15:02.266Z,59.03
2024-04-01T01:16:02.310Z,59.42
2024-04-01T01:17:02.346Z,57.33
2024-04-01T01:18:02.393Z,59.64
2024-04-01T01:19:02.453Z,59.18
2024-04-01T01:20:02.478Z,58.48
2024-04-01T01:21:02.522Z,59.32
2024-04-01T01:22:02.525Z,58.93
2024-04-01T01:23:02.588Z,58.90
2024-04-01T01:24:02.630Z,59.54
2024-04-01T01:25:02.653Z,59.84
2024-04-01T01:26:02.686Z,57.38
2024-04-01T01:27:02.739Z,57.58
2024-04-01T01:28:02.782Z,58.66
2024-04-01T01:29:03.581Z,57.14
2024-04-01T01:30:02.845Z,59.42
2024-04-01T01:31:02.916Z,60.05
2024-04-01T01:32:02.975Z,58.89
2024-04-01T01:33:03.026Z,59.02
2024-04-01T01:34:03.021Z,57.79
2024-04-01T01:35:03.048Z,59.30
2024-04-01T01:36:03.069Z,59.45
2024-04-01T01:37:03.119Z,58.11
2024-04-01T01:38:03.154Z,58.75
2024-04-01T01:39:03.181Z,59.17
2024-04-01T01:40:03.188Z,58.85
2024-04-01T01:41:03.222Z,58.91
2024-04-01T01:42:03.239Z,58.97
2024-04-01T01:43:03.320Z,59.92
2024-04-01T01:44:03.362Z,57.87
2024-04-01T01:45:03.367Z,58.08
2024-04-01T01:46:03.419Z,59.63
2024-04-01T01:47:03.458Z,58.79
2024-04-01T01:48:03.498Z,59.22
2024-04-01T01:49:03.528Z,59.60
2024-04-01T01:50:03.595Z,59.49
2024-04-01T01:51:03.580Z,58.50
2024-04-01T01:52:03.635Z,58.93
2024-04-01T01:53:03.670Z,59.35
2024-04-01T01:54:03.704Z,59.05
2024-04-01T01:55:03.711Z,58.63
2024-04-01T01:56:03.747Z,57.89
2024-04-01T01:57:03.781Z,58.56
2024-04-01T01:58:03.821Z,59.95
2024-04-01T01:59:03.915Z,57.50
2024-04-01T02:00:03.910Z,58.53
2024-04-01T02:01:03.931Z,57.90
2024-04-01T02:02:03.957Z,53.67
2024-04-01T02:03:03.988Z,54.64
2024-04-01T02:04:04.044Z,55.90
2024-04-01T02:05:04.087Z,54.65
2024-04-01T02:06:04.112Z,55.54
2024-04-01T02:07:04.176Z,56.91
2024-04-01T02:08:04.204Z,57.06
2024-04-01T02:09:04.269Z,56.86
2024-04-01T02:10:04.283Z,58.42
2024-04-01T02:11:04.328Z,58.41
2024-04-01T02:12:04.391Z,56.29
2024-04-01T02:13:04.418Z,58.18
2024-04-01T02:14:04.453Z,58.90
2024-04-01T02:15:04.517Z,60.55
2024-04-01T02:16:04.624Z,58.96
2024-04-01T02:17:04.566Z,60.15
2024-04-01T02:18:04.597Z,60.32
2024-04-01T02:19:04.647Z,59.24
2024-04-01T02:20:04.683Z,59.73
2024-04-01T02:21:04.719Z,60.04
2024-04-01T02:22:04.799Z,59.93
2024-04-01T02:23:04.994Z,59.60
2024-04-01T02:24:04.875Z,59.86
2024-04-01T02:25:04.956Z,60.14
2024-04-01T02:26:04.969Z,61.03
2024-04-01T02:27:05.024Z,60.41
2024-04-01T02:28:05.089Z,60.74
2024-04-01T02:29:05.117Z,60.71
2024-04-01T02:30:05.128Z,59.21
2024-04-01T02:31:05.210Z,61.05
2024-04-01T02:32:05.270Z,59.69
2024-04-01T02:33:05.499Z,60.23
2024-04-01T02:34:05.478Z,59.20
2024-04-01T02:35:05.365Z,61.49
2024-04-01T02:36:05.390Z,59.67
2024-04-01T02:37:05.446Z,60.75
2024-04-01T02:38:05.499Z,60.84
2024-04-01T02:39:05.538Z,59.86
2024-04-01T02:40:05.601Z,61.50
2024-04-01T02:41:05.658Z,60.35
2024-04-01T02:42:05.693Z,59.44
2024-04-01T02:43:05.719Z,60.88
2024-04-01T02:44:05.760Z,59.48
2024-04-01T02:45:05.808Z,61.72
2024-04-01T02:46:05.870Z,60.20
2024-04-01T02:47:05.887Z,60.81
2024-04-01T02:48:05.931Z,60.50
2024-04-01T02:49:05.969Z,60.71
2024-04-01T02:50:05.989Z,59.42
2024-04-01T02:51:06.031Z,60.05
2024-04-01T02:52:06.072Z,60.33
2024-04-01T02:53:06.135Z,59.07
2024-04-01T02:54:06.154Z,60.76
2024-04-01T02:55:06.208Z,60.54
2024-04-01T02:56:06.233Z,61.57
2024-04-01T02:57:06.279Z,59.68
2024-04-01T02:58:06.352Z,60.28
2024-04-01T02:59:06.363Z,61.45
2024-04-01T03:00:06.387Z,59.50
2024-04-01T03:01:06.450Z,61.46
2024-04-01T03:02:06.475Z,61.07
2024-04-01T03:03:06.509Z,60.99
2024-04-01T03:04:06.570Z,61.31
2024-04-01T03:05:06.598Z,59.46
2024-04-01T03:06:06.624Z,60.19
2024-04-01T03:07:06.686Z,60.66
2024-04-01T03:08:07.017Z,62.48
2024-04-01T03:09:06.763Z,60.86
2024-04-01T03:10:06.810Z,61.49
2024-04-01T03:11:06.846Z,60.17
2024-04-01T03:12:06.895Z,60.40
2024-04-01T03:13:06.989Z,59.22
2024-04-01T03:14:06.984Z,61.24
2024-04-01T03:15:07.043Z,60.41
2024-04-01T03:16:07.076Z,61.10
2024-04-01T03:17:07.111Z,59.96
2024-04-01T03:18:07.523Z,60.10
2024-04-01T03:19:07.202Z,59.99
2024-04-01T03:20:07.255Z,59.75
2024-04-01T03:21:07.287Z,60.57
2024-04-01T03:22:07.329Z,60.36
2024-04-01T03:23:07.408Z,59.89
2024-04-01T03:24:07.439Z,60.49
2024-04-01T03:25:07.469Z,60.38
2024-04-01T03:26:07.524Z,60.88
2024-04-01T03:27:07.576Z,59.04
2024-04-01T03:28:07.649Z,58.62
2024-04-01T03:29:07.649Z,60.62
2024-04-01T03:30:07.700Z,60.00
2024-04-01T03:31:07.749Z,60.37
2024-04-01T03:32:07.802Z,60.07
2024-04-01T03:33:07.834Z,60.52
2024-04-01T03:34:07.862Z,59.87
2024-04-01T03:35:07.884Z,60.77
2024-04-01T03:36:07.943Z,61.36
2024-04-01T03:37:08.024Z,60.90
2024-04-01T03:38:08.044Z,61.63
2024-04-01T03:39:08.071Z,59.08
2024-04-01T03:40:08.106Z,59.69
2024-04-01T03:41:08.177Z,61.37
2024-04-01T03:42:08.185Z,60.58
2024-04-01T03:43:08.248Z,59.51
2024-04-01T03:44:08.291Z,61.12
2024-04-01T03:45:08.317Z,60.00
2024-04-01T03:46:08.372Z,59.59
2024-04-01T03:47:08.427Z,60.49
2024-04-01T03:48:08.499Z,60.79
2024-04-01T03:49:08.497Z,59.41
2024-04-01T03:50:08.539Z,59.35
2024-04-01T03:51:08.595Z,60.90
2024-04-01T03:52:08.618Z,59.27
2024-04-01T03:53:08.676Z,59.10
2024-04-01T03:54:08.739Z,61.37
2024-04-01T03:55:08.750Z,58.24
2024-04-01T03:56:08.820Z,59.87
2024-04-01T03:57:08.874Z,59.30
2024-04-01T03:58:08.912Z,59.69
2024-04-01T03:59:08.938Z,58.17
2024-04-01T04:00:09.015Z,59.40
2024-04-01T04:01:09.036Z,57.73
2024-04-01T04:02:09.102Z,60.08
2024-04-01T04:03:09.158Z,58.39
2024-04-01T04:04:09.176Z,59.24
2024-04-01T04:05:09.226Z,59.90
2024-04-01T04:06:09.236Z,57.64
2024-04-01T04:07:09.271Z,58.37
2024-04-01T04:08:09.325Z,57.14
2024-04-01T04:09:09.370Z,58.11
2024-04-01T04:10:09.419Z,59.48
2024-04-01T04:11:09.434Z,55.92
2024-04-01T04:12:09.498Z,57.59
2024-04-01T04:13:09.584Z,56.54
2024-04-01T04:14:09.632Z,56.30
2024-04-01T04:15:09.634Z,58.06
2024-04-01T04:16:09.650Z,56.86
2024-04-01T04:17:09.721Z,58.29
2024-04-01T04:18:09.779Z,57.93
2024-04-01T04:19:09.832Z,56.57
2024-04-01T04:20:16.982Z,50.00
2024-04-01T04:21:16.946Z,50.00
2024-04-01T04:22:16.976Z,50.00
2024-04-01T04:23:17.096Z,50.00
2024-04-01T04:24:16.894Z,50.00
2024-04-01T04:25:16.887Z,52.78
2024-04-01T04:26:16.872Z,50.72
2024-04-01T04:27:16.875Z,51.57
2024-04-01T04:28:16.843Z,50.16
2024-04-01T04:29:16.855Z,52.26
2024-04-01T04:30:16.854Z,52.49
2024-04-01T04:31:24.012Z,50.00
2024-04-01T04:32:23.999Z,50.00
2024-04-01T04:33:23.992Z,50.00
2024-04-01T04:34:23.977Z,50.00
2024-04-01T04:35:23.986Z,50.00
2024-04-01T04:36:23.995Z,51.38
2024-04-01T04:37:23.974Z,51.91
2024-04-01T04:38:23.969Z,50.88
2024-04-01T04:39:23.967Z,50.00
2024-04-01T04:40:23.968Z,50.89
2024-04-01T04:41:23.941Z,51.41
2024-04-01T04:42:23.937Z,50.00
2024-04-01T04:43:23.947Z,51.14
2024-04-01T04:44:23.910Z,51.51
2024-04-01T04:45:23.994Z,52.82
2024-04-01T04:46:23.922Z,50.91
2024-04-01T04:47:23.939Z,52.69
2024-04-01T04:48:23.912Z,51.01
2024-04-01T04:49:23.920Z,51.40
2024-04-01T04:50:23.917Z,51.05
2024-04-01T04:51:23.897Z,51.96
2024-04-01T04:52:23.912Z,51.65
2024-04-01T04:53:23.914Z,52.24
2024-04-01T04:54:23.923Z,51.71
2024-04-01T04:55:23.926Z,50.98
2024-04-01T04:56:23.934Z,50.40
2024-04-01T04:57:23.934Z,52.01
2024-04-01T04:58:24.125Z,52.84
2024-04-01T04:59:23.937Z,51.69
2024-04-01T05:00:23.955Z,50.74
2024-04-01T05:01:24.008Z,51.15
2024-04-01T05:02:23.965Z,52.37
2024-04-01T05:03:24.009Z,51.36
2024-04-01T05:04:24.038Z,52.02
2024-04-01T05:05:24.081Z,52.74
2024-04-01T05:06:24.137Z,50.83
2024-04-01T05:07:24.161Z,53.33
2024-04-01T05:08:24.212Z,52.50
2024-04-01T05:09:24.283Z,51.66
2024-04-01T05:10:24.387Z,52.51
2024-04-01T05:11:24.343Z,51.09
2024-04-01T05:12:24.380Z,52.58
2024-04-01T05:13:24.460Z,51.50
2024-04-01T05:14:24.488Z,53.22
2024-04-01T05:15:24.507Z,51.30
2024-04-01T05:16:24.569Z,51.21
2024-04-01T05:17:24.638Z,52.32
2024-04-01T05:18:25.102Z,51.62
2024-04-01T05:19:24.711Z,51.68
2024-04-01T05:20:24.792Z,53.30
2024-04-01T05:21:24.827Z,52.49
2024-04-01T05:22:25.680Z,52.45
2024-04-01T05:23:25.140Z,52.09
2024-04-01T05:24:24.972Z,51.98
2024-04-01T05:25:25.005Z,53.60
2024-04-01T05:26:25.052Z,52.88
2024-04-01T05:27:25.068Z,53.12
2024-04-01T05:28:25.171Z,51.48
2024-04-01T05:29:25.173Z,52.20
2024-04-01T05:30:25.210Z,54.44
2024-04-01T05:31:25.269Z,52.41
2024-04-01T05:32:25.313Z,53.96
2024-04-01T05:33:25.342Z,53.51
2024-04-01T05:34:25.384Z,51.74
2024-04-01T05:35:25.428Z,52.92
2024-04-01T05:36:25.464Z,54.31
2024-04-01T05:37:25.503Z,52.24
2024-04-01T05:38:25.546Z,52.30
2024-04-01T05:39:25.597Z,50.92
2024-04-01T05:40:25.658Z,52.48
2024-04-01T05:41:25.664Z,54.49
2024-04-01T05:42:25.741Z,52.46
2024-04-01T05:43:25.791Z,55.47
2024-04-01T05:44:25.811Z,52.44
2024-04-01T05:45:25.872Z,51.61
2024-04-01T05:46:25.918Z,51.39
2024-04-01T05:47:25.960Z,51.71
2024-04-01T05:48:26.011Z,50.62
2024-04-01T05:49:26.077Z,53.62
2024-04-01T05:50:26.093Z,53.10
2024-04-01T05:51:26.180Z,51.93
2024-04-01T05:52:26.210Z,55.85
2024-04-01T05:53:26.631Z,55.08
2024-04-01T05:54:26.288Z,52.62
2024-04-01T05:55:26.353Z,52.20
2024-04-01T05:56:26.376Z,52.17
2024-04-01T05:57:26.406Z,54.75
2024-04-01T05:58:26.489Z,54.26
2024-04-01T05:59:26.524Z,52.75
2024-04-01T06:00:26.568Z,52.34
2024-04-01T06:01:26.631Z,53.85
2024-04-01T06:02:26.688Z,52.83
2024-04-01T06:03:27.154Z,55.65
2024-04-01T06:04:26.778Z,54.52
2024-04-01T06:05:26.807Z,52.22
2024-04-01T06:06:26.854Z,52.65
2024-04-01T06:07:26.886Z,53.42
2024-04-01T06:08:26.940Z,54.53
2024-04-01T06:09:26.987Z,53.09
2024-04-01T06:10:27.053Z,53.95
2024-04-01T06:11:27.093Z,53.92
2024-04-01T06:12:27.137Z,52.03
2024-04-01T06:13:27.221Z,52.11
2024-04-01T06:14:29.527Z,54.23
2024-04-01T06:15:27.286Z,55.93
2024-04-01T06:16:27.272Z,52.92
2024-04-01T06:17:27.266Z,54.72
2024-04-01T06:18:27.274Z,53.89
2024-04-01T06:19:27.241Z,53.40
2024-04-01T06:20:27.260Z,53.93
2024-04-01T06:21:29.788Z,55.86
2024-04-01T06:22:27.267Z,55.88
2024-04-01T06:23:27.284Z,56.31
2024-04-01T06:24:27.266Z,56.43
2024-04-01T06:25:27.298Z,55.86
2024-04-01T06:26:27.296Z,53.84
2024-04-01T06:27:27.274Z,54.04
2024-04-01T06:28:28.181Z,56.19
2024-04-01T06:29:27.288Z,56.29
2024-04-01T06:30:27.294Z,55.98
2024-04-01T06:31:27.285Z,54.38
2024-04-01T06:32:27.334Z,56.13
2024-04-01T06:33:27.304Z,54.27
2024-04-01T06:34:27.321Z,55.30
2024-04-01T06:35:27.298Z,56.15
2024-04-01T06:36:27.301Z,55.60
2024-04-01T06:37:27.298Z,54.52
2024-04-01T06:38:27.306Z,54.49
2024-04-01T06:39:27.287Z,54.97
2024-04-01T06:40:27.298Z,56.50
2024-04-01T06:41:27.298Z,55.65
2024-04-01T06:42:27.274Z,52.58
2024-04-01T06:43:27.308Z,54.71
2024-04-01T06:44:27.292Z,52.88
2024-04-01T06:45:27.284Z,52.41
2024-04-01T06:46:27.268Z,51.52
2024-04-01T06:47:27.286Z,52.28
2024-04-01T06:48:27.289Z,52.44
2024-04-01T06:49:27.247Z,52.89
2024-04-01T06:50:27.249Z,50.27
2024-04-01T06:51:27.257Z,54.16
2024-04-01T06:52:27.261Z,53.98
2024-04-01T06:53:27.258Z,53.25
2024-04-01T06:54:27.262Z,55.18
2024-04-01T06:55:27.262Z,53.83
2024-04-01T06:56:27.325Z,54.36
2024-04-01T06:57:27.407Z,56.92
2024-04-01T06:58:30.638Z,54.63
2024-04-01T06:59:27.454Z,52.79
2024-04-01T07:00:27.455Z,54.72
2024-04-01T07:01:27.444Z,56.47
2024-04-01T07:02:27.446Z,55.11
2024-04-01T07:03:27.443Z,53.68
2024-04-01T07:04:27.444Z,53.61
2024-04-01T07:05:27.438Z,55.37
2024-04-01T07:06:27.444Z,54.53
2024-04-01T07:07:27.445Z,53.90
2024-04-01T07:08:27.449Z,54.90
2024-04-01T07:09:27.452Z,56.07
2024-04-01T07:10:27.431Z,56.28
2024-04-01T07:11:27.438Z,55.68
2024-04-01T07:12:27.443Z,55.38
2024-04-01T07:13:27.478Z,57.12
2024-04-01T07:14:27.454Z,55.07
2024-04-01T07:15:27.467Z,55.28
2024-04-01T07:16:27.433Z,55.04
2024-04-01T07:17:27.441Z,55.62
2024-04-01T07:18:27.450Z,56.25
2024-04-01T07:19:27.454Z,55.54
2024-04-01T07:20:27.442Z,54.34
2024-04-01T07:21:27.565Z,56.00
2024-04-01T07:22:27.456Z,57.04
2024-04-01T07:23:27.452Z,56.41
2024-04-01T07:24:27.441Z,57.69
2024-04-01T07:25:27.426Z,53.94
2024-04-01T07:26:27.414Z,56.65
2024-04-01T07:27:27.471Z,56.32
2024-04-01T07:28:27.423Z,57.41
2024-04-01T07:29:27.435Z,56.91
2024-04-01T07:30:27.450Z,55.80
2024-04-01T07:31:27.423Z,58.31
2024-04-01T07:32:27.465Z,57.09
2024-04-01T07:33:27.490Z,57.64
2024-04-01T07:34:28.577Z,56.80
2024-04-01T07:35:27.553Z,55.85
2024-04-01T07:36:27.583Z,57.39
2024-04-01T07:37:27.647Z,58.00
2024-04-01T07:38:27.692Z,56.68
2024-04-01T07:39:27.751Z,55.57
2024-04-01T07:40:27.801Z,56.62
2024-04-01T07:41:27.842Z,59.35
2024-04-01T07:42:27.907Z,57.80
2024-04-01T07:43:27.947Z,57.64
2024-04-01T07:44:27.984Z,56.36
2024-04-01T07:45:28.058Z,57.10
2024-04-01T07:46:28.103Z,57.53
2024-04-01T07:47:28.146Z,60.61
2024-04-01T07:48:28.210Z,59.68
2024-04-01T07:49:28.260Z,58.74
2024-04-01T07:50:28.296Z,57.21
2024-04-01T07:51:28.364Z,58.64
2024-04-01T07:52:28.400Z,58.83
2024-04-01T07:53:28.452Z,56.73
2024-04-01T07:54:28.590Z,57.53
2024-04-01T07:55:28.561Z,56.24
2024-04-01T07:56:28.667Z,58.31
2024-04-01T07:57:28.728Z,59.75
2024-04-01T07:58:28.748Z,58.97
2024-04-01T07:59:28.805Z,59.46
2024-04-01T08:00:28.917Z,57.63
2024-04-01T08:01:28.898Z,57.63
2024-04-01T08:02:28.964Z,57.24
2024-04-01T08:03:29.012Z,59.12
2024-04-01T08:04:29.048Z,57.02
2024-04-01T08:05:29.105Z,57.33
2024-04-01T08:06:29.169Z,57.81
2024-04-01T08:07:29.219Z,57.61
2024-04-01T08:08:29.273Z,58.76
2024-04-01T08:09:29.429Z,58.86
2024-04-01T08:10:29.408Z,57.68
2024-04-01T08:11:29.443Z,58.06
2024-04-01T08:12:29.504Z,60.70
2024-04-01T08:13:29.551Z,58.41
2024-04-01T08:14:29.621Z,58.41
2024-04-01T08:15:29.667Z,58.63
2024-04-01T08:16:29.748Z,58.53
2024-04-01T08:17:29.795Z,58.50
2024-04-01T08:18:29.858Z,58.47
2024-04-01T08:19:29.912Z,59.04
2024-04-01T08:20:29.953Z,58.65
2024-04-01T08:21:30.029Z,57.92
2024-04-01T08:22:30.099Z,58.48
2024-04-01T08:23:30.095Z,58.15
2024-04-01T08:24:30.170Z,59.76
2024-04-01T08:25:30.221Z,58.11
2024-04-01T08:26:30.279Z,57.84
2024-04-01T08:27:30.341Z,58.31
2024-04-01T08:28:30.423Z,59.14
2024-04-01T08:29:30.453Z,58.94
2024-04-01T08:30:30.594Z,58.88
2024-04-01T08:31:30.564Z,60.54
2024-04-01T08:32:30.624Z,59.49
2024-04-01T08:33:30.682Z,60.82
2024-04-01T08:34:30.751Z,58.83
2024-04-01T08:35:30.809Z,60.13
2024-04-01T08:36:30.858Z,59.60
2024-04-01T08:37:30.929Z,61.52
2024-04-01T08:38:31.020Z,59.02
2024-04-01T08:39:31.045Z,58.61
2024-04-01T08:40:31.090Z,61.46
2024-04-01T08:41:31.196Z,60.68
2024-04-01T08:42:31.196Z,61.87
2024-04-01T08:43:31.302Z,60.25
2024-04-01T08:44:31.328Z,61.33
2024-04-01T08:45:31.377Z,59.79
2024-04-01T08:46:31.442Z,59.71
2024-04-01T08:47:31.511Z,61.16
2024-04-01T08:48:31.639Z,60.98
2024-04-01T08:49:31.640Z,60.41
2024-04-01T08:50:31.888Z,60.13
2024-04-01T08:51:31.746Z,61.54
2024-04-01T08:52:31.830Z,60.21
2024-04-01T08:53:31.870Z,60.77
2024-04-01T08:54:31.946Z,61.68
2024-04-01T08:55:32.049Z,60.78
2024-04-01T08:56:32.017Z,60.40
2024-04-01T08:57:32.070Z,62.07
2024-04-01T08:58:32.164Z,59.92
2024-04-01T08:59:32.195Z,59.69
2024-04-01T09:00:33.209Z,60.90
2024-04-01T09:01:32.300Z,61.16
2024-04-01T09:02:32.346Z,62.58
2024-04-01T09:03:32.730Z,60.31
2024-04-01T09:04:32.449Z,60.16
2024-04-01T09:05:32.536Z,62.62
2024-04-01T09:06:32.592Z,59.62
2024-04-01T09:07:32.653Z,62.24
2024-04-01T09:08:32.695Z,60.79
2024-04-01T09:09:33.219Z,61.36
2024-04-01T09:10:32.813Z,59.04
2024-04-01T09:11:32.864Z,60.85
2024-04-01T09:12:32.854Z,61.37
2024-04-01T09:13:33.299Z,61.69
2024-04-01T09:14:33.005Z,58.82
2024-04-01T09:15:33.041Z,59.82
2024-04-01T09:16:33.088Z,58.12
2024-04-01T09:17:33.168Z,60.24
2024-04-01T09:18:33.754Z,61.29
2024-04-01T09:19:33.227Z,61.53
2024-04-01T09:20:33.296Z,61.54
2024-04-01T09:21:33.346Z,64.35
2024-04-01T09:22:33.414Z,61.38
2024-04-01T09:23:33.435Z,61.22
2024-04-01T09:24:33.712Z,60.84
2024-04-01T09:25:33.589Z,62.71
2024-04-01T09:26:33.646Z,61.29
2024-04-01T09:27:33.695Z,61.33
2024-04-01T09:28:33.773Z,62.90
2024-04-01T09:29:33.807Z,62.23
2024-04-01T09:30:33.842Z,62.26
2024-04-01T09:31:33.928Z,61.74
2024-04-01T09:32:33.946Z,62.33
2024-04-01T09:33:34.008Z,62.73
2024-04-01T09:34:34.275Z,60.82
2024-04-01T09:35:34.120Z,62.50
2024-04-01T09:36:34.203Z,61.61
2024-04-01T09:37:34.258Z,61.63
2024-04-01T09:38:34.310Z,63.31
2024-04-01T09:39:34.718Z,62.56
2024-04-01T09:40:34.465Z,61.82
2024-04-01T09:41:34.481Z,62.33
2024-04-01T09:42:34.534Z,62.47
2024-04-01T09:43:45.716Z,61.82
2024-04-01T09:44:35.579Z,61.89
2024-04-01T09:45:34.571Z,61.88
2024-04-01T09:46:34.586Z,61.97
2024-04-01T09:47:34.601Z,61.98
2024-04-01T09:48:34.584Z,62.68
2024-04-01T09:49:34.737Z,63.66
2024-04-01T09:50:34.568Z,62.60
2024-04-01T09:51:34.602Z,59.89
2024-04-01T09:52:34.598Z,61.41
2024-04-01T09:53:34.615Z,63.45
2024-04-01T09:54:34.731Z,63.51
2024-04-01T09:55:34.721Z,62.54
2024-04-01T09:56:34.755Z,62.55
2024-04-01T09:57:36.856Z,63.12
2024-04-01T09:58:34.889Z,61.53
2024-04-01T09:59:34.926Z,62.20
2024-04-01T10:00:34.999Z,63.76
2024-04-01T10:01:35.066Z,63.59
2024-04-01T10:02:35.139Z,61.91
2024-04-01T10:03:37.453Z,61.08
2024-04-01T10:04:35.213Z,63.72
2024-04-01T10:05:35.227Z,63.00
2024-04-01T10:06:35.210Z,63.81
2024-04-01T10:07:35.243Z,62.93
2024-04-01T10:08:35.239Z,63.84
2024-04-01T10:09:35.242Z,63.22
2024-04-01T10:10:35.249Z,63.16
2024-04-01T10:11:35.267Z,63.36
2024-04-01T10:12:35.260Z,62.38
2024-04-01T10:13:35.311Z,64.38
2024-04-01T10:14:35.249Z,62.27
2024-04-01T10:15:35.266Z,63.74
2024-04-01T10:16:35.324Z,62.29
2024-04-01T10:17:35.276Z,63.93
2024-04-01T10:18:35.283Z,62.65
2024-04-01T10:19:35.351Z,64.91
2024-04-01T10:20:35.319Z,63.46
2024-04-01T10:21:35.282Z,65.09
2024-04-01T10:22:35.337Z,63.98
2024-04-01T10:23:35.305Z,64.29
2024-04-01T10:24:35.305Z,64.30
2024-04-01T10:25:35.320Z,64.46
2024-04-01T10:26:35.315Z,64.00
2024-04-01T10:27:35.330Z,64.79
2024-04-01T10:28:35.333Z,65.70
2024-04-01T10:29:35.347Z,63.23
2024-04-01T10:30:35.394Z,65.85
2024-04-01T10:31:35.392Z,65.14
2024-04-01T10:32:35.400Z,64.72
2024-04-01T10:33:35.377Z,63.98
2024-04-01T10:34:35.374Z,65.11
2024-04-01T10:35:35.398Z,64.79
2024-04-01T10:36:35.397Z,64.95
2024-04-01T10:37:35.392Z,63.35
2024-04-01T10:38:35.406Z,64.66
2024-04-01T10:39:35.431Z,65.25
2024-04-01T10:40:35.419Z,65.88
2024-04-01T10:41:35.436Z,65.13
2024-04-01T10:42:35.466Z,65.49
2024-04-01T10:43:35.519Z,64.50
2024-04-01T10:44:35.728Z,65.88
2024-04-01T10:45:35.602Z,63.23
2024-04-01T10:46:35.658Z,65.42
2024-04-01T10:47:35.680Z,65.85
2024-04-01T10:48:35.779Z,64.69
2024-04-01T10:49:35.783Z,63.14
2024-04-01T10:50:35.826Z,63.36
2024-04-01T10:51:35.902Z,63.64
2024-04-01T10:52:35.946Z,64.70
2024-04-01T10:53:35.981Z,64.30
2024-04-01T10:54:36.229Z,64.88
2024-04-01T10:55:36.091Z,64.57
2024-04-01T10:56:36.160Z,64.02
2024-04-01T10:57:36.188Z,62.33
2024-04-01T10:58:36.248Z,65.36
2024-04-01T10:59:36.743Z,65.92
2024-04-01T11:00:36.378Z,64.88
2024-04-01T11:01:37.258Z,63.99
2024-04-01T11:02:36.486Z,65.10
2024-04-01T11:03:36.550Z,64.28
2024-04-01T11:04:36.802Z,64.85
2024-04-01T11:05:36.691Z,64.47
2024-04-01T11:06:36.723Z,63.70
2024-04-01T11:07:36.781Z,62.74
2024-04-01T11:08:36.882Z,64.87
2024-04-01T11:09:36.939Z,63.23
2024-04-01T11:10:36.946Z,65.21
2024-04-01T11:11:38.075Z,63.62
2024-04-01T11:12:37.019Z,63.72
2024-04-01T11:13:37.121Z,63.37
2024-04-01T11:14:37.133Z,62.23
2024-04-01T11:15:37.176Z,65.92
2024-04-01T11:16:37.208Z,64.51
2024-04-01T11:17:37.266Z,65.08
2024-04-01T11:18:37.314Z,63.82
2024-04-01T11:19:37.325Z,63.39
2024-04-01T11:20:37.384Z,63.25
2024-04-01T11:21:37.438Z,64.81
2024-04-01T11:22:37.507Z,65.76
2024-04-01T11:23:37.544Z,64.22
2024-04-01T11:24:37.624Z,63.28
2024-04-01T11:25:37.628Z,61.98
2024-04-01T11:26:37.671Z,63.76
2024-04-01T11:27:37.734Z,62.96
2024-04-01T11:28:37.784Z,63.85
2024-04-01T11:29:39.268Z,63.20
2024-04-01T11:30:37.846Z,63.05
2024-04-01T11:31:37.902Z,62.79
2024-04-01T11:32:37.914Z,63.28
2024-04-01T11:33:37.981Z,61.51
2024-04-01T11:34:38.007Z,62.09
2024-04-01T11:35:38.037Z,62.06
2024-04-01T11:36:41.695Z,62.53
2024-04-01T11:37:38.188Z,63.80
2024-04-01T11:38:38.099Z,64.32
2024-04-01T11:39:38.264Z,62.34
2024-04-01T11:40:38.121Z,63.47
2024-04-01T11:41:38.065Z,64.23
2024-04-01T11:42:41.017Z,64.17
2024-04-01T11:43:38.215Z,64.21
2024-04-01T11:45:38.102Z,63.82
2024-04-01T11:46:38.083Z,64.25
2024-04-01T11:47:38.051Z,63.41
2024-04-01T11:48:38.036Z,63.57
2024-04-01T11:49:40.977Z,63.67
2024-04-01T11:50:38.030Z,63.72
2024-04-01T11:51:38.046Z,63.96
2024-04-01T11:52:38.024Z,64.37
2024-04-01T11:53:38.017Z,64.17
2024-04-01T11:54:38.023Z,63.68
2024-04-01T11:55:40.121Z,64.56
2024-04-01T11:56:38.011Z,64.58
2024-04-01T11:57:38.010Z,64.81
2024-04-01T11:58:38.013Z,65.01
2024-04-01T11:59:37.994Z,62.50
2024-04-01T12:00:38.004Z,62.27
2024-04-01T12:01:40.326Z,62.47
2024-04-01T12:02:37.975Z,62.54
2024-04-01T12:03:37.980Z,62.84
2024-04-01T12:04:37.988Z,63.15
2024-04-01T12:05:37.969Z,61.51
2024-04-01T12:06:37.974Z,63.91
2024-04-01T12:07:38.015Z,64.07
2024-04-01T12:08:37.996Z,63.43
2024-04-01T12:09:37.996Z,61.40
2024-04-01T12:10:38.009Z,60.26
2024-04-01T12:11:38.018Z,61.84
2024-04-01T12:12:38.033Z,61.11
2024-04-01T12:13:38.075Z,59.58
2024-04-01T12:14:38.043Z,61.65
2024-04-01T12:15:38.041Z,63.07
2024-04-01T12:16:38.062Z,61.05
2024-04-01T12:17:38.055Z,61.59
2024-04-01T12:18:38.056Z,61.72
2024-04-01T12:19:38.029Z,61.27
2024-04-01T12:20:38.033Z,60.95
2024-04-01T12:21:38.035Z,60.83
2024-04-01T12:22:38.048Z,61.72
2024-04-01T12:23:38.000Z,61.95
2024-04-01T12:24:38.060Z,62.73
2024-04-01T12:25:38.028Z,62.74
2024-04-01T12:26:38.004Z,61.92
2024-04-01T12:27:38.020Z,61.51
2024-04-01T12:28:38.021Z,62.02
2024-04-01T12:29:38.279Z,62.03
2024-04-01T12:30:38.020Z,63.11
2024-04-01T12:31:38.031Z,61.48
2024-04-01T12:32:38.021Z,62.50
2024-04-01T12:33:38.020Z,63.04
2024-04-01T12:34:38.039Z,61.22
2024-04-01T12:35:38.026Z,61.04
2024-04-01T12:36:38.030Z,63.70
2024-04-01T12:37:38.039Z,62.92
2024-04-01T12:38:38.055Z,62.08
2024-04-01T12:39:38.037Z,62.44
2024-04-01T12:40:38.044Z,63.17
2024-04-01T12:41:38.088Z,63.34
2024-04-01T12:42:38.053Z,64.16
2024-04-01T12:43:38.089Z,62.38
2024-04-01T12:44:38.094Z,63.32
2024-04-01T12:45:38.060Z,62.59
2024-04-01T12:46:38.085Z,61.66
2024-04-01T12:47:38.092Z,60.56
2024-04-01T12:48:38.077Z,64.54
2024-04-01T12:49:38.105Z,63.77
2024-04-01T12:50:38.091Z,61.71
2024-04-01T12:51:38.116Z,64.17
2024-04-01T12:52:38.143Z,62.70
2024-04-01T12:53:38.103Z,61.43